createdAt,value
2019-03-12T00:00:45.155Z,11.90
2019-03-12T00:03:14.199Z,10.10
2019-03-12T00:05:42.592Z,10.33
2019-03-12T00:08:11.326Z,8.73
2019-03-12T00:10:40.400Z,9.37
2019-03-12T00:13:09.169Z,10.63
2019-03-12T00:15:37.958Z,8.20
2019-03-12T00:18:06.632Z,10.33
2019-03-12T00:20:34.962Z,8.37
2019-03-12T00:23:03.476Z,9.17
2019-03-12T00:25:32.147Z,9.73
2019-03-12T00:28:00.943Z,13.57
2019-03-12T00:30:30.171Z,10.03
2019-03-12T00:32:58.861Z,8.00
2019-03-12T00:35:27.699Z,8.00
2019-03-12T00:37:56.592Z,8.77
2019-03-12T00:40:25.371Z,9.03
2019-03-12T00:42:54.213Z,6.50
2019-03-12T00:45:23.339Z,9.83
2019-03-12T00:47:51.771Z,13.63
2019-03-12T00:50:20.179Z,10.20
2019-03-12T00:52:48.502Z,10.57
2019-03-12T00:55:17.132Z,12.20
2019-03-12T00:57:45.813Z,10.20
2019-03-12T01:00:15.894Z,7.17
2019-03-12T01:02:44.631Z,8.33
2019-03-12T01:05:13.066Z,9.00
2019-03-12T01:07:42.028Z,13.23
2019-03-12T01:10:11.475Z,7.67
2019-03-12T01:12:40.142Z,14.13
2019-03-12T01:15:09.243Z,10.23
2019-03-12T01:17:37.562Z,10.00
2019-03-12T01:20:06.636Z,12.30
2019-03-12T01:22:35.295Z,8.13
2019-03-12T01:25:03.785Z,10.00
2019-03-12T01:27:32.218Z,9.93
2019-03-12T01:30:00.655Z,10.27
2019-03-12T01:32:29.018Z,11.80
2019-03-12T01:34:57.347Z,10.37
2019-03-12T01:37:25.715Z,9.47
2019-03-12T01:39:54.261Z,12.03
2019-03-12T01:42:23.011Z,13.57
2019-03-12T01:44:51.346Z,11.13
2019-03-12T01:47:19.691Z,7.93
2019-03-12T01:49:48.022Z,8.53
2019-03-12T01:52:16.345Z,6.97
2019-03-12T01:54:44.673Z,9.00
2019-03-12T01:57:12.992Z,8.07
2019-03-12T01:59:41.780Z,9.67
2019-03-12T02:02:10.244Z,11.97
2019-03-12T02:04:38.665Z,11.50
2019-03-12T02:07:06.995Z,10.93
2019-03-12T02:09:35.429Z,12.10
2019-03-12T02:12:04.126Z,9.60
2019-03-12T02:14:32.563Z,10.70
2019-03-12T02:17:00.903Z,10.23
2019-03-12T02:19:29.309Z,12.83
2019-03-12T02:21:57.750Z,8.90
2019-03-12T02:24:26.141Z,10.63
2019-03-12T02:26:54.474Z,11.77
2019-03-12T02:29:22.797Z,11.27
2019-03-12T02:31:51.225Z,11.43
2019-03-12T02:34:19.559Z,8.50
2019-03-12T02:36:47.999Z,10.70
2019-03-12T02:39:16.436Z,10.03
2019-03-12T02:41:44.771Z,10.27
2019-03-12T02:44:13.599Z,13.23
2019-03-12T02:46:42.424Z,8.03
2019-03-12T02:49:11.653Z,8.93
2019-03-12T02:51:40.334Z,12.40
2019-03-12T02:54:08.699Z,8.67
2019-03-12T02:56:37.082Z,11.10
2019-03-12T02:59:05.410Z,8.50
2019-03-12T03:01:33.835Z,9.10
2019-03-12T03:04:02.246Z,10.40
2019-03-12T03:06:45.321Z,10.10
2019-03-12T03:09:13.767Z,23.23
2019-03-12T03:11:42.101Z,7.60
2019-03-12T03:14:28.143Z,12.47
2019-03-12T03:16:56.470Z,12.50
2019-03-12T03:19:25.307Z,9.17
2019-03-12T03:21:54.051Z,10.13
2019-03-12T03:24:22.883Z,12.37
2019-03-12T03:26:51.392Z,10.30
2019-03-12T03:29:20.519Z,10.10
2019-03-12T03:31:49.187Z,9.13
2019-03-12T03:34:17.577Z,9.17
2019-03-12T03:36:45.973Z,10.93
2019-03-12T03:39:14.308Z,12.13
2019-03-12T03:41:42.640Z,8.87
2019-03-12T03:44:10.971Z,14.53
2019-03-12T03:46:39.326Z,10.00
2019-03-12T03:49:07.954Z,6.90
2019-03-12T03:51:36.445Z,11.97
2019-03-12T03:54:04.861Z,9.03
2019-03-12T03:56:33.338Z,9.97
2019-03-12T03:59:01.809Z,10.53
2019-03-12T04:01:30.199Z,11.20
2019-03-12T04:03:58.534Z,9.60
2019-03-12T04:06:26.867Z,9.37
2019-03-12T04:08:55.222Z,13.07
2019-03-12T04:11:23.559Z,13.33
2019-03-12T04:13:51.957Z,12.80
2019-03-12T04:16:20.301Z,10.30
2019-03-12T04:18:48.647Z,12.03
2019-03-12T04:21:16.977Z,15.17
2019-03-12T04:23:45.333Z,10.87
2019-03-12T04:26:13.784Z,18.53
2019-03-12T04:28:42.257Z,10.33
2019-03-12T04:31:10.599Z,11.57
2019-03-12T04:34:06.993Z,12.43
2019-03-12T04:36:35.357Z,10.20
2019-03-12T04:39:05.218Z,10.63
2019-03-12T04:41:33.568Z,19.27
2019-03-12T04:44:02.086Z,13.27
2019-03-12T04:46:30.454Z,12.03
2019-03-12T04:48:58.830Z,9.27
2019-03-12T04:51:27.222Z,10.33
2019-03-12T04:53:55.546Z,9.13
2019-03-12T04:56:24.029Z,41.00
2019-03-12T04:58:52.370Z,11.33
2019-03-12T05:01:20.752Z,13.33
2019-03-12T05:03:49.112Z,13.70
2019-03-12T05:06:19.802Z,11.80
2019-03-12T05:08:47.479Z,11.30
2019-03-12T05:11:16.274Z,13.77
2019-03-12T05:13:53.225Z,10.63
2019-03-12T05:16:21.703Z,10.47
2019-03-12T05:18:50.070Z,11.87
2019-03-12T05:21:18.418Z,10.17
2019-03-12T05:23:46.787Z,14.23
2019-03-12T05:26:15.167Z,12.10
2019-03-12T05:28:43.528Z,10.17
2019-03-12T05:31:11.942Z,9.50
2019-03-12T05:33:40.292Z,11.67
2019-03-12T05:36:08.624Z,8.80
2019-03-12T05:38:36.966Z,11.27
2019-03-12T05:41:05.289Z,10.67
2019-03-12T05:43:33.633Z,9.60
2019-03-12T05:46:02.016Z,11.03
2019-03-12T05:48:33.380Z,10.60
2019-03-12T05:51:01.756Z,12.03
2019-03-12T05:53:39.737Z,8.37
2019-03-12T05:56:08.079Z,8.50
2019-03-12T05:58:36.423Z,12.30
2019-03-12T06:01:04.868Z,10.40
2019-03-12T06:03:33.270Z,12.97
2019-03-12T06:06:03.135Z,13.23
2019-03-12T06:08:31.459Z,11.53
2019-03-12T06:10:59.810Z,11.40
2019-03-12T06:13:28.249Z,11.90
2019-03-12T06:15:56.595Z,12.47
2019-03-12T06:18:24.938Z,9.37
2019-03-12T06:20:53.304Z,10.27
2019-03-12T06:23:21.732Z,12.03
2019-03-12T06:25:50.094Z,15.27
2019-03-12T06:28:18.434Z,9.63
2019-03-12T06:31:11.564Z,11.17
2019-03-12T06:33:53.819Z,12.60
2019-03-12T06:36:33.843Z,9.83
2019-03-12T06:39:11.986Z,12.10
2019-03-12T06:41:50.785Z,8.97
2019-03-12T06:44:40.815Z,16.10
2019-03-12T06:47:16.945Z,14.03
2019-03-12T06:49:51.425Z,10.43
2019-03-12T06:52:41.683Z,11.50
2019-03-12T06:55:41.017Z,13.23
2019-03-12T06:58:27.142Z,10.80
2019-03-12T07:01:20.181Z,9.57
2019-03-12T07:04:25.835Z,13.47
2019-03-12T07:07:12.868Z,10.13
2019-03-12T07:09:53.439Z,16.10
2019-03-12T07:12:43.735Z,10.03
2019-03-12T07:15:31.138Z,11.10
2019-03-12T07:18:21.306Z,13.50
2019-03-12T07:21:23.646Z,10.40
2019-03-12T07:24:16.794Z,7.30
2019-03-12T07:26:51.623Z,6.97
2019-03-12T07:29:38.859Z,10.50
2019-03-12T07:32:26.729Z,10.80
2019-03-12T07:35:12.687Z,11.50
2019-03-12T07:38:05.930Z,9.47
2019-03-12T07:40:54.260Z,12.80
2019-03-12T07:43:40.295Z,5.77
2019-03-12T07:46:24.079Z,7.50
2019-03-12T07:49:23.537Z,9.53
2019-03-12T07:52:02.750Z,6.53
2019-03-12T07:54:53.037Z,8.17
2019-03-12T07:57:38.739Z,13.53
2019-03-12T08:00:35.807Z,11.17
2019-03-12T08:03:32.434Z,8.03
2019-03-12T08:06:19.671Z,9.00
2019-03-12T08:09:09.858Z,9.57
2019-03-12T08:11:52.903Z,7.43
2019-03-12T08:14:38.664Z,8.37
2019-03-12T08:17:41.207Z,7.87
2019-03-12T08:20:28.552Z,7.30
2019-03-12T08:23:04.678Z,9.70
2019-03-12T08:25:57.856Z,10.70
2019-03-12T08:28:45.197Z,10.60
2019-03-12T08:31:38.532Z,7.30
2019-03-12T08:34:19.582Z,10.80
2019-03-12T08:37:05.451Z,9.10
2019-03-12T08:39:43.283Z,7.67
2019-03-12T08:42:32.204Z,6.60
2019-03-12T08:45:11.075Z,8.33
2019-03-12T08:47:56.599Z,5.53
2019-03-12T08:50:53.096Z,9.60
2019-03-12T08:53:39.298Z,13.80
2019-03-12T08:56:16.758Z,5.57
2019-03-12T08:59:13.299Z,6.20
2019-03-12T09:01:49.228Z,7.87
2019-03-12T09:04:32.597Z,9.80
2019-03-12T09:07:25.917Z,9.50
2019-03-12T09:10:16.312Z,6.60
2019-03-12T09:12:58.088Z,14.03
2019-03-12T09:15:44.358Z,6.80
2019-03-12T09:18:39.614Z,8.67
2019-03-12T09:21:44.972Z,7.40
2019-03-12T09:24:30.012Z,10.67
2019-03-12T09:27:16.092Z,7.90
2019-03-12T09:29:50.900Z,6.87
2019-03-12T09:32:31.754Z,3.53
2019-03-12T09:35:10.924Z,5.10
2019-03-12T09:37:50.388Z,3.23
2019-03-12T09:40:40.524Z,3.67
2019-03-12T09:43:26.358Z,2.90
2019-03-12T09:46:07.183Z,6.80
2019-03-12T09:48:54.527Z,4.57
2019-03-12T09:51:45.073Z,4.43
2019-03-12T09:54:38.380Z,3.23
2019-03-12T09:57:28.667Z,5.93
2019-03-12T10:00:21.816Z,8.23
2019-03-12T10:03:21.100Z,4.67
2019-03-12T10:06:26.467Z,4.63
2019-03-12T10:09:19.522Z,6.13
2019-03-12T10:12:06.757Z,6.93
2019-03-12T10:15:06.056Z,13.80
2019-03-12T10:17:49.946Z,6.13
2019-03-12T10:20:55.852Z,5.83
2019-03-12T10:23:49.084Z,5.20
2019-03-12T10:26:42.341Z,7.33
2019-03-12T10:29:28.534Z,3.57
2019-03-12T10:32:17.131Z,9.03
2019-03-12T10:35:10.243Z,8.33
2019-03-12T10:38:09.537Z,39.60
2019-03-12T10:40:55.132Z,11.77
2019-03-12T10:43:34.825Z,6.50
2019-03-12T10:46:20.999Z,3.07
2019-03-12T10:48:49.299Z,3.17
2019-03-12T10:51:17.611Z,1.57
2019-03-12T10:53:45.949Z,4.30
2019-03-12T10:56:14.455Z,3.33
2019-03-12T10:58:42.783Z,19.67
2019-03-12T11:01:11.108Z,6.83
2019-03-12T11:03:39.557Z,3.93
2019-03-12T11:06:07.976Z,9.87
2019-03-12T11:08:36.326Z,45.10
2019-03-12T11:11:04.671Z,27.80
2019-03-12T11:13:33.109Z,8.30
2019-03-12T11:16:01.570Z,9.67
2019-03-12T11:18:29.946Z,15.33
2019-03-12T11:20:58.896Z,7.67
2019-03-12T11:23:27.556Z,2.70
2019-03-12T11:25:55.921Z,1.97
2019-03-12T11:28:26.600Z,3.57
2019-03-12T11:30:54.491Z,6.00
2019-03-12T11:33:22.832Z,7.90
2019-03-12T11:35:51.263Z,1.50
2019-03-12T11:38:19.578Z,5.13
2019-03-12T11:40:48.006Z,5.77
2019-03-12T11:43:16.409Z,4.60
2019-03-12T11:45:44.859Z,2.43
2019-03-12T11:48:13.582Z,3.00
2019-03-12T11:50:41.958Z,5.10
2019-03-12T11:53:10.372Z,2.97
2019-03-12T11:55:38.712Z,2.40
2019-03-12T11:58:07.071Z,4.63
2019-03-12T12:00:49.264Z,3.47
2019-03-12T12:03:17.615Z,1.27
2019-03-12T12:05:45.979Z,3.37
2019-03-12T12:08:14.338Z,4.40
2019-03-12T12:10:42.759Z,2.60
2019-03-12T12:13:11.188Z,3.17
2019-03-12T12:15:39.518Z,8.40
2019-03-12T12:18:07.979Z,3.20
2019-03-12T12:20:36.413Z,2.73
2019-03-12T12:23:04.864Z,1.93
2019-03-12T12:25:35.164Z,4.00
2019-03-12T12:28:03.513Z,2.63
2019-03-12T12:30:31.906Z,2.10
2019-03-12T12:33:00.334Z,5.53
2019-03-12T12:35:28.850Z,1.27
2019-03-12T12:37:57.265Z,2.37
2019-03-12T12:40:25.743Z,1.37
2019-03-12T12:42:54.083Z,2.60
2019-03-12T12:45:23.258Z,1.90
2019-03-12T12:47:51.611Z,4.37
2019-03-12T12:50:20.139Z,1.10
2019-03-12T12:52:48.476Z,1.93
2019-03-12T12:55:16.924Z,3.10
2019-03-12T12:57:45.386Z,4.77
2019-03-12T13:00:15.909Z,3.33
2019-03-12T13:02:44.307Z,2.00
2019-03-12T13:05:12.763Z,3.33
2019-03-12T13:07:41.106Z,4.93
2019-03-12T13:10:10.772Z,4.20
2019-03-12T13:12:39.089Z,2.53
2019-03-12T13:15:07.647Z,3.70
2019-03-12T13:17:36.023Z,3.20
2019-03-12T13:20:04.930Z,2.33
2019-03-12T13:22:33.272Z,0.97
2019-03-12T13:25:01.616Z,1.90
2019-03-12T13:27:41.534Z,2.47
2019-03-12T13:30:00.026Z,1.90
2019-03-12T13:32:28.633Z,2.00
2019-03-12T13:34:57.354Z,1.33
2019-03-12T13:37:25.856Z,2.63
2019-03-12T13:39:54.316Z,9.77
2019-03-12T13:42:22.657Z,2.70
2019-03-12T13:44:50.984Z,7.90
2019-03-12T13:47:19.451Z,2.33
2019-03-12T13:49:47.787Z,3.60
2019-03-12T13:52:16.174Z,1.17
2019-03-12T13:54:44.546Z,3.23
2019-03-12T13:57:12.884Z,3.43
2019-03-12T13:59:41.299Z,2.73
2019-03-12T14:02:09.680Z,2.57
2019-03-12T14:04:38.084Z,3.17
2019-03-12T14:07:06.430Z,2.90
2019-03-12T14:09:34.909Z,1.20
2019-03-12T14:12:03.370Z,2.33
2019-03-12T14:14:31.686Z,2.33
2019-03-12T14:17:00.159Z,0.73
2019-03-12T14:19:28.589Z,2.50
2019-03-12T14:21:57.130Z,1.57
2019-03-12T14:24:25.497Z,3.10
2019-03-12T14:26:53.979Z,3.70
2019-03-12T14:29:22.456Z,3.57
2019-03-12T14:31:50.916Z,2.30
2019-03-12T14:34:19.302Z,3.10
2019-03-12T14:36:47.801Z,2.73
2019-03-12T14:39:16.663Z,5.33
2019-03-12T14:41:45.068Z,3.50
2019-03-12T14:44:13.481Z,3.70
2019-03-12T14:46:41.915Z,3.00
2019-03-12T14:49:10.384Z,1.07
2019-03-12T14:51:40.799Z,1.83
2019-03-12T14:54:09.287Z,1.40
2019-03-12T14:56:37.756Z,5.10
2019-03-12T14:59:06.186Z,1.87
2019-03-12T15:01:34.563Z,1.77
2019-03-12T15:04:03.043Z,3.23
2019-03-12T15:06:31.627Z,1.77
2019-03-12T15:09:02.532Z,5.17
2019-03-12T15:11:30.845Z,1.67
2019-03-12T15:13:59.271Z,3.07
2019-03-12T15:16:27.591Z,2.93
2019-03-12T15:18:55.914Z,2.77
2019-03-12T15:21:24.274Z,1.77
2019-03-12T15:23:52.598Z,2.90
2019-03-12T15:26:21.004Z,2.07
2019-03-12T15:28:49.586Z,5.30
2019-03-12T15:31:17.937Z,3.90
2019-03-12T15:33:46.412Z,2.90
2019-03-12T15:36:14.758Z,1.27
2019-03-12T15:38:43.227Z,1.87
2019-03-12T15:41:11.538Z,5.70
2019-03-12T15:43:39.858Z,1.70
2019-03-12T15:46:08.172Z,1.30
2019-03-12T15:48:36.496Z,7.13
2019-03-12T15:51:04.943Z,0.93
2019-03-12T15:53:33.261Z,2.77
2019-03-12T15:56:01.619Z,4.10
2019-03-12T15:58:30.046Z,3.03
2019-03-12T16:00:58.382Z,1.53
2019-03-12T16:03:26.800Z,1.63
2019-03-12T16:05:55.239Z,0.80
2019-03-12T16:08:23.556Z,1.47
2019-03-12T16:10:58.092Z,3.07
2019-03-12T16:13:21.867Z,3.73
2019-03-12T16:15:50.389Z,2.40
2019-03-12T16:18:18.850Z,3.93
2019-03-12T16:20:47.309Z,4.27
2019-03-12T16:23:15.842Z,5.33
2019-03-12T16:25:44.194Z,3.10
2019-03-12T16:28:12.578Z,1.93
2019-03-12T16:30:41.061Z,2.27
2019-03-12T16:33:09.483Z,3.13
2019-03-12T16:35:37.836Z,3.33
2019-03-12T16:38:07.117Z,4.87
2019-03-12T16:40:36.101Z,3.73
2019-03-12T16:43:04.761Z,3.33
2019-03-12T16:45:33.362Z,5.33
2019-03-12T16:48:02.401Z,4.23
2019-03-12T16:50:30.793Z,4.50
2019-03-12T16:52:59.541Z,1.27
2019-03-12T16:55:28.047Z,1.57
2019-03-12T16:57:56.445Z,2.27
2019-03-12T17:00:24.852Z,2.43
2019-03-12T17:02:53.587Z,3.30
2019-03-12T17:05:22.118Z,6.73
2019-03-12T17:07:50.932Z,2.83
2019-03-12T17:10:20.482Z,5.57
2019-03-12T17:12:48.992Z,2.07
2019-03-12T17:15:17.599Z,3.63
2019-03-12T17:17:46.129Z,2.87
2019-03-12T17:20:14.730Z,4.40
2019-03-12T17:22:43.546Z,3.53
2019-03-12T17:25:12.560Z,3.00
2019-03-12T17:27:41.612Z,2.33
2019-03-12T17:30:12.112Z,2.00
2019-03-12T17:32:40.601Z,3.70
2019-03-12T17:35:10.246Z,2.77
2019-03-12T17:37:39.284Z,2.43
2019-03-12T17:40:09.404Z,1.77
2019-03-12T17:42:37.899Z,4.17
2019-03-12T17:45:07.191Z,3.20
2019-03-12T17:47:35.920Z,3.20
2019-03-12T17:50:05.585Z,4.73
2019-03-12T17:52:34.394Z,3.50
2019-03-12T17:55:03.862Z,3.13
2019-03-12T17:57:33.449Z,5.53
2019-03-12T18:00:02.271Z,2.17
2019-03-12T18:02:42.095Z,2.23
2019-03-12T18:05:03.090Z,4.10
2019-03-12T18:07:32.215Z,3.80
2019-03-12T18:10:03.694Z,3.13
2019-03-12T18:12:33.192Z,5.00
2019-03-12T18:15:03.770Z,4.13
2019-03-12T18:17:34.328Z,4.97
2019-03-12T18:20:03.335Z,2.63
2019-03-12T18:22:33.103Z,6.20
2019-03-12T18:25:03.011Z,7.90
2019-03-12T18:27:32.417Z,2.50
2019-03-12T18:30:02.054Z,4.33
2019-03-12T18:32:31.250Z,2.33
2019-03-12T18:34:59.931Z,3.77
2019-03-12T18:37:29.109Z,2.73
2019-03-12T18:39:58.111Z,4.73
2019-03-12T18:42:27.765Z,1.67
2019-03-12T18:44:56.817Z,2.73
2019-03-12T18:47:26.833Z,2.43
2019-03-12T18:49:56.031Z,2.43
2019-03-12T18:52:25.455Z,2.90
2019-03-12T18:54:54.505Z,4.77
2019-03-12T18:57:23.522Z,3.07
2019-03-12T18:59:53.145Z,10.63
2019-03-12T19:02:22.762Z,5.07
2019-03-12T19:04:51.733Z,5.67
2019-03-12T19:07:21.214Z,4.43
2019-03-12T19:09:50.238Z,6.20
2019-03-12T19:12:19.862Z,5.67
2019-03-12T19:14:49.278Z,4.03
2019-03-12T19:17:18.902Z,4.20
2019-03-12T19:19:48.336Z,2.27
2019-03-12T19:22:17.247Z,3.63
2019-03-12T19:24:45.968Z,3.83
2019-03-12T19:27:14.748Z,4.27
2019-03-12T19:29:43.499Z,3.47
2019-03-12T19:32:24.341Z,4.03
2019-03-12T19:34:53.164Z,3.57
2019-03-12T19:37:22.589Z,3.83
2019-03-12T19:39:52.000Z,3.20
2019-03-12T19:42:21.597Z,3.93
2019-03-12T19:44:50.627Z,4.63
2019-03-12T19:47:20.606Z,4.50
2019-03-12T19:49:52.262Z,4.00
2019-03-12T19:52:21.453Z,2.90
2019-03-12T19:54:51.076Z,7.80
2019-03-12T19:57:20.501Z,6.30
2019-03-12T19:59:49.900Z,6.53
2019-03-12T20:02:19.403Z,4.10
2019-03-12T20:04:48.557Z,5.00
2019-03-12T20:07:18.383Z,3.70
2019-03-12T20:10:12.367Z,6.07
2019-03-12T20:12:58.909Z,3.30
2019-03-12T20:15:58.997Z,2.93
2019-03-12T20:18:58.747Z,3.10
2019-03-12T20:21:46.447Z,5.43
2019-03-12T20:24:37.108Z,5.77
2019-03-12T20:27:24.409Z,3.43
2019-03-12T20:30:09.869Z,4.20
2019-03-12T20:32:57.961Z,9.33
2019-03-12T20:35:54.855Z,3.47
2019-03-12T20:38:41.505Z,6.13
2019-03-12T20:41:30.678Z,7.80
2019-03-12T20:44:09.066Z,5.40
2019-03-12T20:47:14.804Z,3.90
2019-03-12T20:50:11.475Z,4.30
2019-03-12T20:52:59.403Z,6.73
2019-03-12T20:55:46.454Z,6.87
2019-03-12T20:58:34.520Z,4.10
2019-03-12T21:01:27.951Z,3.43
2019-03-12T21:04:13.498Z,8.23
2019-03-12T21:07:10.411Z,9.53
2019-03-12T21:09:57.394Z,4.63
2019-03-12T21:12:44.303Z,2.47
2019-03-12T21:15:51.472Z,3.53
2019-03-12T21:18:41.911Z,8.37
2019-03-12T21:21:48.692Z,4.60
2019-03-12T21:24:36.774Z,5.57
2019-03-12T21:27:24.674Z,4.13
2019-03-12T21:29:53.222Z,3.93
2019-03-12T21:32:22.525Z,5.20
2019-03-12T21:34:51.989Z,3.17
2019-03-12T21:37:21.159Z,2.53
2019-03-12T21:39:55.767Z,11.77
2019-03-12T21:42:20.815Z,6.53
2019-03-12T21:44:50.238Z,13.83
2019-03-12T21:47:19.236Z,24.30
2019-03-12T21:49:48.501Z,22.67
2019-03-12T21:52:17.405Z,16.07
2019-03-12T21:54:46.433Z,5.17
2019-03-12T21:57:16.043Z,7.90
2019-03-12T21:59:44.675Z,5.57
2019-03-12T22:02:14.079Z,6.47
2019-03-12T22:04:42.735Z,7.77
2019-03-12T22:07:11.854Z,7.10
2019-03-12T22:09:40.602Z,7.23
2019-03-12T22:12:09.449Z,5.70
2019-03-12T22:14:37.818Z,5.53
2019-03-12T22:17:06.691Z,6.10
2019-03-12T22:19:35.728Z,8.13
2019-03-12T22:22:14.679Z,5.27
2019-03-12T22:24:43.467Z,3.70
2019-03-12T22:27:12.260Z,6.00
2019-03-12T22:29:40.688Z,7.40
2019-03-12T22:32:09.362Z,7.13
2019-03-12T22:34:38.175Z,9.23
2019-03-12T22:37:07.197Z,12.33
2019-03-12T22:39:35.844Z,4.47
2019-03-12T22:42:04.855Z,5.30
2019-03-12T22:44:33.560Z,3.20
2019-03-12T22:47:02.356Z,4.20
2019-03-12T22:49:30.892Z,6.53
2019-03-12T22:51:59.215Z,6.13
2019-03-12T22:54:27.596Z,8.43
2019-03-12T22:56:56.111Z,6.80
2019-03-12T22:59:24.452Z,4.23
2019-03-12T23:01:52.795Z,5.00
2019-03-12T23:04:21.340Z,2.53
2019-03-12T23:06:50.071Z,1.43
2019-03-12T23:09:18.875Z,1.47
2019-03-12T23:11:47.532Z,0.70
2019-03-12T23:14:16.367Z,2.47
2019-03-12T23:16:44.725Z,0.40
2019-03-12T23:19:13.720Z,0.83
2019-03-12T23:21:42.068Z,0.60
2019-03-12T23:24:10.473Z,2.03
2019-03-12T23:26:38.873Z,0.63
2019-03-12T23:29:07.482Z,0.53
2019-03-12T23:31:36.234Z,0.53
2019-03-12T23:34:05.240Z,0.70
2019-03-12T23:36:33.914Z,0.73
2019-03-12T23:39:02.731Z,0.80
2019-03-12T23:41:31.735Z,0.40
2019-03-12T23:44:00.707Z,0.87
2019-03-12T23:46:29.059Z,0.47
2019-03-12T23:48:57.742Z,0.37
2019-03-12T23:51:26.556Z,0.30
2019-03-12T23:53:55.522Z,0.83
2019-03-12T23:56:24.243Z,0.60
2019-03-12T23:58:53.040Z,0.57
